CheckWX is a tool to help pilots better visualize weather data.  It is not intended as a substitute for an official pre-flight weather briefing.

17:31:58 UTC

HSSS METAR
Khartoum International Airport
Khartoum, Sudan
Current

32 mins ago

HSSS 241700Z 34016KT CAVOK 37/M05 Q1005 NOSIG
Observed
Mar-24 @ 17:00 UTC
Wind
  • 340° at 16 KTS
Visibility
10,000+ meters
Flight Rules
VFR
Cloud Levels
  • Clear skies
Temperature
37°C / 99°F
Dewpoint
-5°C / 23°F
Humidity
7%
Altimeter
29.68" Hg
Pressure
1004.92 hPa
Previous

1 hour ago

HSSS 241630Z 34015KT CAVOK 38/M04 Q1004 NOSIG
Observed
Mar-24 @ 16:30 UTC
Wind
  • 340° at 15 KTS
Visibility
10,000+ meters
Flight Rules
VFR
Cloud Levels
  • Clear skies
Temperature
38°C / 100°F
Dewpoint
-4°C / 25°F
Humidity
7%
Altimeter
29.65" Hg
Pressure
1003.92 hPa
Previous

2 hours ago

HSSS 241600Z 33011KT 8000 39/M04 Q1004 TEMPO 6000
Observed
Mar-24 @ 16:00 UTC
Wind
  • 330° at 11 KTS
Visibility
7,998 meters
Temperature
39°C / 102°F
Dewpoint
-4°C / 25°F
Humidity
6%
Altimeter
29.65" Hg
Pressure
1003.92 hPa